Flight Track Log - Related Links

Times and Time Zones

All times are in EDT time to prevent confusion due to time zone crossing. See the CTL309 flight status page for this flight to view local times or setup timezone preferences in your user account.

Time Position Orientation Groundspeed Altitude Reporting Facility
EDT Latitude Longitude Course Direction KTS MPH feet Rate Location/Type
Thu 03:48:28 AM 40.0758 -83.0956 256° West 115 132 1,400  Level Indianapolis Center
Thu 03:49:35 AM 40.0658 -83.1464 256° West 148 170 2,200 600 Climbing Indianapolis Center
Thu 03:50:18 AM 40.0486 -83.1789 235° Southwest 144 166 2,500 500 Climbing Indianapolis Center
Thu 03:50:35 AM 40.0419 -83.1897 231° Southwest 159 183 2,700 787 Climbing Indianapolis Center
Thu 03:51:19 AM 40.0244 -83.2258 238° Southwest 151 174 3,300 787 Climbing Indianapolis Center
Thu 03:51:36 AM 40.0175 -83.2386 235° Southwest 150 173 3,500 500 Climbing Indianapolis Center
Thu 03:52:19 AM 40.0017 -83.2689 236° Southwest 148 170 3,800 295 Climbing Indianapolis Center
Thu 03:52:37 AM 39.9936 -83.2819 231° Southwest 143 165 3,800  Level Indianapolis Center
Thu 03:53:19 AM 39.9819 -83.3089 241° Southwest 150 173 3,800 100 Level Indianapolis Center
Thu 03:53:37 AM 39.9714 -83.3311 238° Southwest 160 184 3,900 -100 Climbing Indianapolis Center
Thu 03:54:19 AM 39.9592 -83.3589 240° Southwest 155 178 3,700 -98 Descending Indianapolis Center
Thu 03:54:38 AM 39.9511 -83.3803 244° Southwest 164 189 3,800 98 Climbing Indianapolis Center
Thu 03:55:20 AM 39.9369 -83.4069 235° Southwest 155 178 3,800 100 Level Indianapolis Center
Thu 03:55:38 AM 39.9267 -83.4264 235° Southwest 149 171 3,900  Climbing Indianapolis Center
Thu 03:56:20 AM 39.9142 -83.4519 237° Southwest 152 175 3,800 -98 Descending Indianapolis Center
Thu 03:56:39 AM 39.9025 -83.4722 233° Southwest 154 177 3,800  Level Indianapolis Center
Thu 03:57:20 AM 39.8872 -83.5056 239° Southwest 152 175 3,800  Level Indianapolis Center
Thu 03:57:40 AM 39.8803 -83.5186 235° Southwest 151 174 3,800 200 Level Indianapolis Center
Thu 03:58:20 AM 39.8647 -83.5514 238° Southwest 152 175 4,000  Climbing Indianapolis Center
Thu 03:58:40 AM 39.8556 -83.5700 237° Southwest 154 177 3,800 -98 Descending Indianapolis Center
Thu 03:59:21 AM 39.8414 -83.5969 236° Southwest 152 175 3,900  Climbing Indianapolis Center
Thu 03:59:41 AM 39.8314 -83.6158 235° Southwest 177 204 3,800 -100 Descending Indianapolis Center
Thu 04:00:21 AM 39.8169 -83.6439 236° Southwest 154 177 3,800  Level Indianapolis Center
Thu 04:00:41 AM 39.8092 -83.6619 241° Southwest 156 180 3,800  Level Indianapolis Center
Thu 04:01:21 AM 39.7928 -83.6911 234° Southwest 155 178 3,800  Level Indianapolis Center
Thu 04:01:42 AM 39.7847 -83.7078 238° Southwest 154 177 3,800  Level Indianapolis Center
Thu 04:02:21 AM 39.7692 -83.7378 236° Southwest 155 178 3,800  Level Indianapolis Center
Thu 04:02:43 AM 39.7600 -83.7561 237° Southwest 155 178 3,800 98 Level Indianapolis Center
Thu 04:03:22 AM 39.7458 -83.7861 238° Southwest 156 180 3,900  Climbing Indianapolis Center
Thu 04:03:43 AM 39.7378 -83.8022 237° Southwest 156 180 3,800 -100 Descending Indianapolis Center
Thu 04:04:22 AM 39.7250 -83.8250 234° Southwest 156 180 3,800  Level Indianapolis Center
Thu 04:04:44 AM 39.7133 -83.8481 237° Southwest 156 180 3,800  Level Indianapolis Center
Thu 04:05:22 AM 39.7003 -83.8722 235° Southwest 157 181 3,800  Level Indianapolis Center
Thu 04:05:44 AM 39.6889 -83.8964 239° Southwest 153 176 3,800  Level Indianapolis Center
Thu 04:06:22 AM 39.6750 -83.9208 234° Southwest 159 183 3,800  Level Indianapolis Center
Thu 04:07:23 AM 39.6494 -83.9678 235° Southwest 159 183 3,800 50 Level Indianapolis Center
Thu 04:08:23 AM 39.6264 -84.0158 238° Southwest 157 181 3,900 50 Climbing Indianapolis Center
Thu 04:09:23 AM 39.6025 -84.0633 237° Southwest 156 180 3,900  Level Indianapolis Center
Thu 04:10:24 AM 39.5767 -84.1114 235° Southwest 158 182 3,900  Level Indianapolis Center
Thu 04:11:24 AM 39.5522 -84.1589 236° Southwest 158 182 3,900 -400 Level Indianapolis Center
Thu 04:12:24 AM 39.5256 -84.2094 236° Southwest 162 186 3,100 -496 Descending Indianapolis Center
Thu 04:13:25 AM 39.4978 -84.2647 237° Southwest 173 199 2,900 -99 Descending Indianapolis Center
Thu 04:14:25 AM 39.4711 -84.3114 233° Southwest 169 194 2,900 -50 Level Indianapolis Center
Thu 04:15:25 AM 39.4447 -84.3597 235° Southwest 164 189 2,800 -100 Descending Indianapolis Center

Login

Don't have an account? Register now (free) for customized features, flight alerts, and more!